Flight Track Log - Related Links

Times and Time Zones

All times are in EDT time to prevent confusion due to time zone crossing. See the SWA3943 flight status page for this flight to view local times or setup timezone preferences in your user account.


Time Position Orientation Groundspeed Altitude Reporting Facility
EDT Latitude Longitude Course Direction KTS MPH feet Rate Location/Type
Fri 08:23:44 PM 39.9969 -82.9314 276° West 163 188 2,300  Level Indianapolis Center
Fri 08:24:28 PM 40.0053 -82.9808 282° West 184 212 3,800 2,656 Climbing Indianapolis Center
Fri 08:24:45 PM 40.0089 -83.0033 282° West 203 234 5,000 2,516 Climbing Indianapolis Center
Fri 08:25:30 PM 39.9911 -83.0392 237° Southwest 203 234 6,400 2,700 Climbing Indianapolis Center
Fri 08:25:45 PM 39.9672 -83.0314 166° South 232 267 7,700 3,148 Climbing Indianapolis Center
Fri 08:26:31 PM 39.9333 -82.9983 143° Southeast 247 284 9,600 2,056 Climbing Indianapolis Center
Fri 08:27:33 PM 39.9325 -82.8875 91° East 304 350 11,400 2,341 Climbing Indianapolis Center
Fri 08:28:34 PM 39.9358 -82.7708 88° East 317 365 14,400 2,829 Climbing Indianapolis Center
Fri 08:29:36 PM 39.9428 -82.6492 86° East 331 381 17,200 2,341 Climbing Indianapolis Center
Fri 08:30:37 PM 39.9489 -82.5253 86° East 338 389 19,200 2,098 Climbing Indianapolis Center
Fri 08:31:39 PM 39.9547 -82.3925 87° East 360 414 21,500 2,341 Climbing Indianapolis Center
Fri 08:32:40 PM 39.9625 -82.2400 86° East 359 413 24,000 2,016 Climbing Indianapolis Center
Fri 08:33:41 PM 39.9675 -82.1014 87° East 375 432 25,600 1,317 Climbing Indianapolis Center
Fri 08:34:43 PM 39.9739 -81.9575 87° East 393 452 26,700 1,073 Climbing Indianapolis Center
Fri 08:35:44 PM 39.9800 -81.8056 87° East 413 475 27,800 1,073 Climbing Indianapolis Center
Fri 08:36:46 PM 39.9867 -81.6475 87° East 438 504 28,900 585 Climbing Indianapolis Center
Fri 08:37:47 PM 39.9919 -81.4844 88° East 447 514 29,000 49 Climbing Indianapolis Center
Fri 08:38:49 PM 39.9967 -81.3161 88° East 458 527 29,000  Level Indianapolis Center
Fri 08:39:50 PM 39.9736 -81.1522 100° East 459 528 29,000  Level Indianapolis Center
Fri 08:40:51 PM 39.9483 -80.9750 100° East 452 520 29,000  Level Indianapolis Center
Fri 08:41:52 PM 39.9250 -80.8183 101° East 442 509 29,000  Level Indianapolis Center
Fri 08:42:28 PM 39.9169 -80.7347 97° East 443 510 29,000  Level Cleveland Center
Fri 08:43:28 PM 39.8942 -80.5803 101° East 438 504 29,000  Level Cleveland Center
Fri 08:44:28 PM 39.8711 -80.4233 101° East 433 498 29,000  Level Cleveland Center
Fri 08:45:28 PM 39.8478 -80.2722 101° East 433 498 29,000  Level Cleveland Center
Fri 08:46:28 PM 39.8244 -80.1181 101° East 433 498 29,000  Level Cleveland Center
Fri 08:47:28 PM 39.8008 -79.9617 101° East 433 498 29,000  Level Cleveland Center
Fri 08:49:18 PM 39.7569 -79.6808 101° East 442 509 29,000  Level Washington Center
Fri 08:50:19 PM 39.7331 -79.5231 101° East 442 509 29,000 -49 Level Washington Center
Fri 08:51:20 PM 39.7067 -79.3678 102° East 442 509 28,900 -1,008 Descending Washington Center
Fri 08:52:18 PM 39.6842 -79.2183 101° East 433 498 27,000 -1,983 Descending Washington Center
Fri 08:53:18 PM 39.6594 -79.0714 102° East 420 483 25,000 -992 Descending Washington Center
Fri 08:54:19 PM 39.6242 -78.9108 106° East 418 481 25,000  Level Washington Center
Fri 08:55:20 PM 39.5928 -78.7667 106° East 424 488 25,000 -712 Level Washington Center
Fri 08:56:17 PM 39.5608 -78.6278 107° East 419 482 23,600 -1,932 Descending Washington Center
Fri 08:57:18 PM 39.5289 -78.4867 106° East 400 460 21,200 -2,361 Descending Washington Center
Fri 08:58:19 PM 39.4967 -78.3456 106° East 405 466 18,800 -2,361 Descending Washington Center
Fri 08:59:20 PM 39.4664 -78.2125 106° East 399 459 16,400 -1,884 Descending Washington Center
Fri 09:00:20 PM 39.4381 -78.0800 105° East 388 447 15,000 -712 Descending Washington Center
Fri 09:01:18 PM 39.4178 -77.9422 101° East 383 441 15,000  Level Washington Center
Fri 09:02:18 PM 39.4289 -77.8028 84° East 378 435 15,000 -148 Level Washington Center
Fri 09:03:20 PM 39.4333 -77.6658 88° East 378 435 14,700 -1,300 Descending Washington Center
Fri 09:04:18 PM 39.4397 -77.5344 86° East 378 435 12,400 -1,815 Descending Washington Center
Fri 09:05:19 PM 39.4436 -77.4056 88° East 371 427 11,100 -944 Descending Washington Center
Fri 09:05:47 PM 39.4500 -77.3500 82° East 319 367 11,000 -68 Descending Potomac TRACON
Fri 09:06:47 PM 39.4667 -77.2333 79° East 311 358 11,000 -470 Level Potomac TRACON
Fri 09:07:42 PM 39.4833 -77.1333 78° East 311 358 10,100 -989 Descending Potomac TRACON
Fri 09:08:18 PM 39.4814 -77.0811 93° East 304 350 9,500 -1,200 Descending Washington Center
Fri 09:10:42 PM 39.5167 -76.8167 80° East 296 341 6,500 -1,029 Descending Potomac TRACON
Fri 09:11:42 PM 39.5167 -76.7167 90° East 264 304 6,000 -800 Descending Potomac TRACON
Fri 09:12:42 PM 39.4833 -76.6667 131° Southeast 235 270 4,900 -952 Descending Potomac TRACON
Fri 09:13:48 PM 39.4167 -76.6000 142° Southeast 230 265 4,000 -450 Descending Potomac TRACON
Fri 09:14:42 PM 39.3833 -76.5500 131° Southeast 235 270 4,000 -500 Level Potomac TRACON
Fri 09:15:48 PM 39.3333 -76.4833 134° Southeast 235 270 3,000 -500 Descending Potomac TRACON
Fri 09:16:42 PM 39.3000 -76.4333 131° Southeast 199 229 3,000  Level Potomac TRACON
Fri 09:17:54 PM 39.2667 -76.3667 123° Southeast 192 221 3,000  Level Potomac TRACON
Fri 09:18:48 PM 39.2333 -76.3000 123° Southeast 195 224 3,000  Level Potomac TRACON
Fri 09:19:48 PM 39.2000 -76.2833 159° South 180 207 3,000  Level Potomac TRACON
Fri 09:20:42 PM 39.1667 -76.3167 218° Southwest 163 188 3,000  Level Potomac TRACON
Fri 09:21:42 PM 39.1500 -76.3667 247° West 163 188 3,000  Level Potomac TRACON
Fri 09:22:42 PM 39.1500 -76.4167 270° West 167 192 3,000 -150 Level Potomac TRACON
Fri 09:23:42 PM 39.1667 -76.4833 288° West 162 186 2,700 -550 Descending Potomac TRACON
Fri 09:24:42 PM 39.1667 -76.5333 270° West 156 180 1,900 -800 Descending Potomac TRACON

Login

Don't have an account? Register now (free) for customized features, flight alerts, and more!